sensor_id;sensor_type;location;lat;lon;timestamp;P1;durP1;ratioP1;P2;durP2;ratioP2
32333;SDS011;18810;53.040;8.850;2023-05-01T00:02:12;9.95;;;7.38;;
32333;SDS011;18810;53.040;8.850;2023-05-01T00:04:38;12.75;;;7.82;;
32333;SDS011;18810;53.040;8.850;2023-05-01T00:07:03;21.13;;;8.30;;
32333;SDS011;18810;53.040;8.850;2023-05-01T00:09:29;12.40;;;7.85;;
32333;SDS011;18810;53.040;8.850;2023-05-01T00:11:56;12.90;;;8.15;;
32333;SDS011;18810;53.040;8.850;2023-05-01T00:14:22;13.52;;;7.22;;
32333;SDS011;18810;53.040;8.850;2023-05-01T00:16:47;14.82;;;7.82;;
32333;SDS011;18810;53.040;8.850;2023-05-01T00:19:13;15.82;;;7.82;;
32333;SDS011;18810;53.040;8.850;2023-05-01T00:21:46;12.40;;;8.10;;
32333;SDS011;18810;53.040;8.850;2023-05-01T00:24:15;11.98;;;8.35;;
32333;SDS011;18810;53.040;8.850;2023-05-01T00:26:41;13.48;;;7.90;;
32333;SDS011;18810;53.040;8.850;2023-05-01T00:29:06;14.88;;;8.68;;
32333;SDS011;18810;53.040;8.850;2023-05-01T00:31:32;15.48;;;8.48;;
32333;SDS011;18810;53.040;8.850;2023-05-01T00:33:58;15.07;;;8.32;;
32333;SDS011;18810;53.040;8.850;2023-05-01T00:36:24;12.93;;;7.80;;
32333;SDS011;18810;53.040;8.850;2023-05-01T00:38:50;14.88;;;8.13;;
32333;SDS011;18810;53.040;8.850;2023-05-01T00:41:16;13.27;;;7.47;;
32333;SDS011;18810;53.040;8.850;2023-05-01T00:43:42;15.13;;;8.25;;
32333;SDS011;18810;53.040;8.850;2023-05-01T00:46:07;14.45;;;7.93;;
32333;SDS011;18810;53.040;8.850;2023-05-01T00:48:34;13.00;;;7.72;;
32333;SDS011;18810;53.040;8.850;2023-05-01T00:51:00;11.02;;;7.95;;
32333;SDS011;18810;53.040;8.850;2023-05-01T00:53:30;13.50;;;7.90;;
32333;SDS011;18810;53.040;8.850;2023-05-01T00:55:58;15.82;;;8.20;;
32333;SDS011;18810;53.040;8.850;2023-05-01T00:58:24;14.05;;;7.85;;
32333;SDS011;18810;53.040;8.850;2023-05-01T01:00:50;17.70;;;8.50;;
32333;SDS011;18810;53.040;8.850;2023-05-01T01:03:17;12.15;;;7.50;;
32333;SDS011;18810;53.040;8.850;2023-05-01T01:05:50;12.13;;;7.22;;
32333;SDS011;18810;53.040;8.850;2023-05-01T01:08:45;13.82;;;7.47;;
32333;SDS011;18810;53.040;8.850;2023-05-01T01:14:31;14.13;;;7.50;;
32333;SDS011;18810;53.040;8.850;2023-05-01T01:23:00;18.60;;;7.72;;
32333;SDS011;18810;53.040;8.850;2023-05-01T01:34:29;13.73;;;6.88;;
32333;SDS011;18810;53.040;8.850;2023-05-01T01:42:05;16.77;;;7.85;;
32333;SDS011;18810;53.040;8.850;2023-05-01T01:44:48;13.85;;;7.22;;
32333;SDS011;18810;53.040;8.850;2023-05-01T01:47:20;9.48;;;6.40;;
32333;SDS011;18810;53.040;8.850;2023-05-01T01:49:52;11.35;;;7.18;;
32333;SDS011;18810;53.040;8.850;2023-05-01T01:52:20;10.82;;;7.00;;
32333;SDS011;18810;53.040;8.850;2023-05-01T01:54:51;17.50;;;7.20;;
32333;SDS011;18810;53.040;8.850;2023-05-01T01:57:22;11.63;;;7.15;;
32333;SDS011;18810;53.040;8.850;2023-05-01T01:59:49;8.75;;;6.63;;
32333;SDS011;18810;53.040;8.850;2023-05-01T02:02:16;13.18;;;6.63;;
32333;SDS011;18810;53.040;8.850;2023-05-01T02:04:44;13.65;;;6.90;;
32333;SDS011;18810;53.040;8.850;2023-05-01T02:07:12;12.63;;;6.57;;
32333;SDS011;18810;53.040;8.850;2023-05-01T02:09:39;13.63;;;6.82;;
32333;SDS011;18810;53.040;8.850;2023-05-01T02:12:07;12.65;;;7.10;;
32333;SDS011;18810;53.040;8.850;2023-05-01T02:14:34;13.30;;;6.55;;
32333;SDS011;18810;53.040;8.850;2023-05-01T02:17:01;11.13;;;6.15;;
32333;SDS011;18810;53.040;8.850;2023-05-01T02:19:28;9.70;;;6.20;;
32333;SDS011;18810;53.040;8.850;2023-05-01T02:21:56;11.88;;;6.72;;
32333;SDS011;18810;53.040;8.850;2023-05-01T02:24:22;10.25;;;6.30;;
32333;SDS011;18810;53.040;8.850;2023-05-01T02:26:56;9.80;;;6.68;;
32333;SDS011;18810;53.040;8.850;2023-05-01T02:29:42;13.73;;;6.43;;
32333;SDS011;18810;53.040;8.850;2023-05-01T02:32:08;12.57;;;6.63;;
32333;SDS011;18810;53.040;8.850;2023-05-01T02:34:34;11.85;;;6.65;;
32333;SDS011;18810;53.040;8.850;2023-05-01T02:37:00;10.85;;;6.90;;
32333;SDS011;18810;53.040;8.850;2023-05-01T02:39:28;10.98;;;6.50;;
32333;SDS011;18810;53.040;8.850;2023-05-01T02:41:54;11.45;;;6.28;;
32333;SDS011;18810;53.040;8.850;2023-05-01T02:44:22;9.80;;;6.20;;
32333;SDS011;18810;53.040;8.850;2023-05-01T02:46:50;10.95;;;6.68;;
32333;SDS011;18810;53.040;8.850;2023-05-01T02:49:17;10.73;;;6.75;;
32333;SDS011;18810;53.040;8.850;2023-05-01T02:51:45;14.10;;;6.68;;
32333;SDS011;18810;53.040;8.850;2023-05-01T02:54:12;19.83;;;7.70;;
32333;SDS011;18810;53.040;8.850;2023-05-01T02:56:38;12.88;;;6.70;;
32333;SDS011;18810;53.040;8.850;2023-05-01T02:59:04;10.85;;;6.28;;
32333;SDS011;18810;53.040;8.850;2023-05-01T03:01:29;14.05;;;6.93;;
32333;SDS011;18810;53.040;8.850;2023-05-01T03:03:55;11.27;;;6.68;;
32333;SDS011;18810;53.040;8.850;2023-05-01T03:06:21;10.52;;;6.30;;
32333;SDS011;18810;53.040;8.850;2023-05-01T03:08:46;11.65;;;7.13;;
32333;SDS011;18810;53.040;8.850;2023-05-01T03:11:12;14.80;;;6.70;;
32333;SDS011;18810;53.040;8.850;2023-05-01T03:13:39;14.77;;;6.78;;
32333;SDS011;18810;53.040;8.850;2023-05-01T03:16:04;10.88;;;7.40;;
32333;SDS011;18810;53.040;8.850;2023-05-01T03:18:30;13.57;;;7.15;;
32333;SDS011;18810;53.040;8.850;2023-05-01T03:20:56;13.57;;;7.30;;
32333;SDS011;18810;53.040;8.850;2023-05-01T03:23:22;11.88;;;6.63;;
32333;SDS011;18810;53.040;8.850;2023-05-01T03:25:48;12.93;;;6.72;;
32333;SDS011;18810;53.040;8.850;2023-05-01T03:28:14;12.57;;;7.75;;
32333;SDS011;18810;53.040;8.850;2023-05-01T03:30:40;10.93;;;6.95;;
32333;SDS011;18810;53.040;8.850;2023-05-01T03:33:06;18.02;;;7.47;;
32333;SDS011;18810;53.040;8.850;2023-05-01T03:35:32;11.95;;;6.57;;
32333;SDS011;18810;53.040;8.850;2023-05-01T03:37:58;12.52;;;7.78;;
32333;SDS011;18810;53.040;8.850;2023-05-01T03:40:24;9.45;;;7.05;;
32333;SDS011;18810;53.040;8.850;2023-05-01T03:42:50;11.40;;;7.47;;
32333;SDS011;18810;53.040;8.850;2023-05-01T03:45:15;16.38;;;7.55;;
32333;SDS011;18810;53.040;8.850;2023-05-01T03:47:41;11.20;;;6.68;;
32333;SDS011;18810;53.040;8.850;2023-05-01T03:50:07;16.85;;;6.90;;
32333;SDS011;18810;53.040;8.850;2023-05-01T03:52:33;10.32;;;7.00;;
32333;SDS011;18810;53.040;8.850;2023-05-01T03:54:59;17.27;;;7.13;;
32333;SDS011;18810;53.040;8.850;2023-05-01T03:57:25;12.38;;;6.90;;
32333;SDS011;18810;53.040;8.850;2023-05-01T03:59:51;10.77;;;7.10;;
32333;SDS011;18810;53.040;8.850;2023-05-01T04:02:17;12.82;;;7.55;;
32333;SDS011;18810;53.040;8.850;2023-05-01T04:04:43;10.32;;;6.93;;
32333;SDS011;18810;53.040;8.850;2023-05-01T04:07:09;11.88;;;7.47;;
32333;SDS011;18810;53.040;8.850;2023-05-01T04:09:35;15.48;;;6.93;;
32333;SDS011;18810;53.040;8.850;2023-05-01T04:12:01;11.77;;;7.88;;
32333;SDS011;18810;53.040;8.850;2023-05-01T04:14:27;13.45;;;7.43;;
32333;SDS011;18810;53.040;8.850;2023-05-01T04:16:53;14.52;;;6.88;;
32333;SDS011;18810;53.040;8.850;2023-05-01T04:19:19;12.57;;;7.63;;
32333;SDS011;18810;53.040;8.850;2023-05-01T04:21:45;14.10;;;7.82;;
32333;SDS011;18810;53.040;8.850;2023-05-01T04:24:11;19.00;;;7.78;;
32333;SDS011;18810;53.040;8.850;2023-05-01T04:26:37;16.42;;;7.30;;
32333;SDS011;18810;53.040;8.850;2023-05-01T04:29:03;14.93;;;6.97;;
32333;SDS011;18810;53.040;8.850;2023-05-01T04:31:28;12.98;;;7.50;;
32333;SDS011;18810;53.040;8.850;2023-05-01T04:33:54;11.45;;;7.18;;
32333;SDS011;18810;53.040;8.850;2023-05-01T04:36:20;11.45;;;6.97;;
32333;SDS011;18810;53.040;8.850;2023-05-01T04:38:46;10.27;;;6.85;;
32333;SDS011;18810;53.040;8.850;2023-05-01T04:41:12;12.73;;;6.85;;
32333;SDS011;18810;53.040;8.850;2023-05-01T04:43:38;15.63;;;7.82;;
32333;SDS011;18810;53.040;8.850;2023-05-01T04:46:04;11.35;;;7.70;;
32333;SDS011;18810;53.040;8.850;2023-05-01T04:48:30;13.75;;;7.70;;
32333;SDS011;18810;53.040;8.850;2023-05-01T04:50:55;15.27;;;7.57;;
32333;SDS011;18810;53.040;8.850;2023-05-01T04:53:21;15.18;;;8.38;;
32333;SDS011;18810;53.040;8.850;2023-05-01T04:55:47;9.93;;;7.07;;
32333;SDS011;18810;53.040;8.850;2023-05-01T04:58:13;10.48;;;7.43;;
32333;SDS011;18810;53.040;8.850;2023-05-01T05:00:38;16.90;;;8.48;;
32333;SDS011;18810;53.040;8.850;2023-05-01T05:03:04;14.68;;;7.95;;
32333;SDS011;18810;53.040;8.850;2023-05-01T05:05:30;14.50;;;7.28;;
32333;SDS011;18810;53.040;8.850;2023-05-01T05:07:56;13.98;;;7.60;;
32333;SDS011;18810;53.040;8.850;2023-05-01T05:10:22;10.85;;;7.82;;
32333;SDS011;18810;53.040;8.850;2023-05-01T05:12:48;14.15;;;7.47;;
32333;SDS011;18810;53.040;8.850;2023-05-01T05:15:13;15.73;;;7.70;;
32333;SDS011;18810;53.040;8.850;2023-05-01T05:17:40;12.40;;;7.47;;
32333;SDS011;18810;53.040;8.850;2023-05-01T05:20:06;15.48;;;7.88;;
32333;SDS011;18810;53.040;8.850;2023-05-01T05:22:34;16.23;;;7.75;;
32333;SDS011;18810;53.040;8.850;2023-05-01T05:25:01;12.85;;;6.97;;
32333;SDS011;18810;53.040;8.850;2023-05-01T05:27:28;14.02;;;7.13;;
32333;SDS011;18810;53.040;8.850;2023-05-01T05:30:03;14.40;;;7.07;;
32333;SDS011;18810;53.040;8.850;2023-05-01T05:32:30;14.27;;;7.93;;
32333;SDS011;18810;53.040;8.850;2023-05-01T05:34:56;15.75;;;7.97;;
32333;SDS011;18810;53.040;8.850;2023-05-01T05:37:22;11.32;;;7.22;;
32333;SDS011;18810;53.040;8.850;2023-05-01T05:39:49;15.07;;;8.60;;
32333;SDS011;18810;53.040;8.850;2023-05-01T05:42:18;12.32;;;7.53;;
32333;SDS011;18810;53.040;8.850;2023-05-01T05:44:43;13.35;;;7.38;;
32333;SDS011;18810;53.040;8.850;2023-05-01T05:47:09;11.90;;;7.57;;
32333;SDS011;18810;53.040;8.850;2023-05-01T05:49:35;12.95;;;7.15;;
32333;SDS011;18810;53.040;8.850;2023-05-01T05:52:00;14.27;;;7.43;;
32333;SDS011;18810;53.040;8.850;2023-05-01T05:54:26;16.30;;;7.70;;
32333;SDS011;18810;53.040;8.850;2023-05-01T05:56:51;13.32;;;8.00;;
32333;SDS011;18810;53.040;8.850;2023-05-01T05:59:17;15.98;;;7.95;;
32333;SDS011;18810;53.040;8.850;2023-05-01T06:01:43;17.63;;;8.05;;
32333;SDS011;18810;53.040;8.850;2023-05-01T06:04:08;15.43;;;7.63;;
32333;SDS011;18810;53.040;8.850;2023-05-01T06:06:35;15.60;;;7.47;;
32333;SDS011;18810;53.040;8.850;2023-05-01T06:09:01;13.77;;;7.63;;
32333;SDS011;18810;53.040;8.850;2023-05-01T06:11:27;12.43;;;7.68;;
32333;SDS011;18810;53.040;8.850;2023-05-01T06:13:53;9.38;;;6.60;;
32333;SDS011;18810;53.040;8.850;2023-05-01T06:16:19;11.57;;;7.10;;
32333;SDS011;18810;53.040;8.850;2023-05-01T06:18:45;9.65;;;6.72;;
32333;SDS011;18810;53.040;8.850;2023-05-01T06:21:10;14.07;;;7.38;;
32333;SDS011;18810;53.040;8.850;2023-05-01T06:23:36;15.50;;;7.78;;
32333;SDS011;18810;53.040;8.850;2023-05-01T06:26:02;14.25;;;7.55;;
32333;SDS011;18810;53.040;8.850;2023-05-01T06:28:28;14.52;;;7.63;;
32333;SDS011;18810;53.040;8.850;2023-05-01T06:30:53;9.93;;;6.72;;
32333;SDS011;18810;53.040;8.850;2023-05-01T06:33:19;11.48;;;7.22;;
32333;SDS011;18810;53.040;8.850;2023-05-01T06:35:45;15.38;;;7.13;;
32333;SDS011;18810;53.040;8.850;2023-05-01T06:38:11;10.15;;;6.80;;
32333;SDS011;18810;53.040;8.850;2023-05-01T06:40:36;13.05;;;6.88;;
32333;SDS011;18810;53.040;8.850;2023-05-01T06:43:02;12.13;;;6.45;;
32333;SDS011;18810;53.040;8.850;2023-05-01T06:45:28;16.08;;;7.40;;
32333;SDS011;18810;53.040;8.850;2023-05-01T06:47:54;9.23;;;7.03;;
32333;SDS011;18810;53.040;8.850;2023-05-01T06:50:20;11.80;;;6.65;;
32333;SDS011;18810;53.040;8.850;2023-05-01T06:52:46;9.77;;;6.65;;
32333;SDS011;18810;53.040;8.850;2023-05-01T06:55:11;11.65;;;6.55;;
32333;SDS011;18810;53.040;8.850;2023-05-01T06:57:37;11.32;;;6.53;;
32333;SDS011;18810;53.040;8.850;2023-05-01T07:00:04;13.38;;;7.38;;
32333;SDS011;18810;53.040;8.850;2023-05-01T07:02:30;12.80;;;6.45;;
32333;SDS011;18810;53.040;8.850;2023-05-01T07:04:56;11.13;;;6.18;;
32333;SDS011;18810;53.040;8.850;2023-05-01T07:07:21;11.07;;;6.95;;
32333;SDS011;18810;53.040;8.850;2023-05-01T07:09:48;10.05;;;5.78;;
32333;SDS011;18810;53.040;8.850;2023-05-01T07:12:13;8.73;;;5.45;;
32333;SDS011;18810;53.040;8.850;2023-05-01T07:14:39;8.82;;;5.75;;
32333;SDS011;18810;53.040;8.850;2023-05-01T07:17:05;10.40;;;6.03;;
32333;SDS011;18810;53.040;8.850;2023-05-01T07:19:31;11.65;;;5.43;;
32333;SDS011;18810;53.040;8.850;2023-05-01T07:22:00;9.23;;;5.63;;
32333;SDS011;18810;53.040;8.850;2023-05-01T07:24:25;14.82;;;6.07;;
32333;SDS011;18810;53.040;8.850;2023-05-01T07:26:51;10.50;;;5.78;;
32333;SDS011;18810;53.040;8.850;2023-05-01T07:29:16;12.07;;;5.45;;
32333;SDS011;18810;53.040;8.850;2023-05-01T07:31:43;10.07;;;5.35;;
32333;SDS011;18810;53.040;8.850;2023-05-01T07:34:10;12.40;;;5.78;;
32333;SDS011;18810;53.040;8.850;2023-05-01T07:36:35;11.82;;;5.82;;
32333;SDS011;18810;53.040;8.850;2023-05-01T07:39:01;7.22;;;5.85;;
32333;SDS011;18810;53.040;8.850;2023-05-01T07:41:28;10.32;;;5.38;;
32333;SDS011;18810;53.040;8.850;2023-05-01T07:43:56;11.63;;;5.40;;
32333;SDS011;18810;53.040;8.850;2023-05-01T07:46:23;8.40;;;5.32;;
32333;SDS011;18810;53.040;8.850;2023-05-01T07:48:49;11.70;;;5.93;;
32333;SDS011;18810;53.040;8.850;2023-05-01T07:51:14;9.77;;;5.70;;
32333;SDS011;18810;53.040;8.850;2023-05-01T07:53:42;8.52;;;5.65;;
32333;SDS011;18810;53.040;8.850;2023-05-01T07:56:08;10.40;;;5.63;;
32333;SDS011;18810;53.040;8.850;2023-05-01T07:58:34;10.00;;;5.22;;
32333;SDS011;18810;53.040;8.850;2023-05-01T08:01:01;9.40;;;6.00;;
32333;SDS011;18810;53.040;8.850;2023-05-01T08:03:28;9.02;;;5.32;;
32333;SDS011;18810;53.040;8.850;2023-05-01T08:05:54;9.77;;;5.47;;
32333;SDS011;18810;53.040;8.850;2023-05-01T08:08:20;9.40;;;5.88;;
32333;SDS011;18810;53.040;8.850;2023-05-01T08:10:46;10.02;;;5.57;;
32333;SDS011;18810;53.040;8.850;2023-05-01T08:13:12;7.25;;;5.20;;
32333;SDS011;18810;53.040;8.850;2023-05-01T08:15:38;11.55;;;5.40;;
32333;SDS011;18810;53.040;8.850;2023-05-01T08:18:06;9.45;;;5.63;;
32333;SDS011;18810;53.040;8.850;2023-05-01T08:20:34;12.27;;;6.07;;
32333;SDS011;18810;53.040;8.850;2023-05-01T08:23:00;8.68;;;5.43;;
32333;SDS011;18810;53.040;8.850;2023-05-01T08:25:26;15.32;;;5.78;;
32333;SDS011;18810;53.040;8.850;2023-05-01T08:27:52;8.65;;;5.05;;
32333;SDS011;18810;53.040;8.850;2023-05-01T08:30:17;7.68;;;5.22;;
32333;SDS011;18810;53.040;8.850;2023-05-01T08:32:43;12.30;;;5.95;;
32333;SDS011;18810;53.040;8.850;2023-05-01T08:35:09;9.73;;;5.93;;
32333;SDS011;18810;53.040;8.850;2023-05-01T08:40:05;9.82;;;5.35;;
32333;SDS011;18810;53.040;8.850;2023-05-01T08:42:34;10.63;;;5.50;;
32333;SDS011;18810;53.040;8.850;2023-05-01T08:45:02;9.68;;;5.90;;
32333;SDS011;18810;53.040;8.850;2023-05-01T08:47:28;11.98;;;5.50;;
32333;SDS011;18810;53.040;8.850;2023-05-01T08:49:55;9.88;;;5.82;;
32333;SDS011;18810;53.040;8.850;2023-05-01T08:52:23;8.30;;;5.68;;
32333;SDS011;18810;53.040;8.850;2023-05-01T08:54:52;8.18;;;5.78;;
32333;SDS011;18810;53.040;8.850;2023-05-01T08:57:20;8.93;;;5.35;;
32333;SDS011;18810;53.040;8.850;2023-05-01T08:59:47;8.50;;;5.85;;
32333;SDS011;18810;53.040;8.850;2023-05-01T09:02:15;9.30;;;5.35;;
32333;SDS011;18810;53.040;8.850;2023-05-01T09:04:42;9.38;;;5.82;;
32333;SDS011;18810;53.040;8.850;2023-05-01T09:07:08;10.73;;;6.05;;
32333;SDS011;18810;53.040;8.850;2023-05-01T09:09:34;9.57;;;6.07;;
32333;SDS011;18810;53.040;8.850;2023-05-01T09:14:51;10.02;;;5.70;;
32333;SDS011;18810;53.040;8.850;2023-05-01T09:17:17;7.78;;;5.38;;
32333;SDS011;18810;53.040;8.850;2023-05-01T09:19:45;9.40;;;5.50;;
32333;SDS011;18810;53.040;8.850;2023-05-01T09:22:11;7.20;;;5.47;;
32333;SDS011;18810;53.040;8.850;2023-05-01T09:24:37;11.38;;;6.10;;
32333;SDS011;18810;53.040;8.850;2023-05-01T09:27:02;12.25;;;6.43;;
32333;SDS011;18810;53.040;8.850;2023-05-01T09:34:45;10.68;;;5.88;;
32333;SDS011;18810;53.040;8.850;2023-05-01T09:37:13;10.50;;;5.80;;
32333;SDS011;18810;53.040;8.850;2023-05-01T09:42:30;7.85;;;5.60;;
32333;SDS011;18810;53.040;8.850;2023-05-01T09:45:00;9.50;;;5.68;;
32333;SDS011;18810;53.040;8.850;2023-05-01T09:47:28;12.43;;;6.18;;
32333;SDS011;18810;53.040;8.850;2023-05-01T09:49:54;8.70;;;5.60;;
32333;SDS011;18810;53.040;8.850;2023-05-01T09:52:22;9.43;;;5.55;;
32333;SDS011;18810;53.040;8.850;2023-05-01T09:57:41;7.00;;;5.05;;
32333;SDS011;18810;53.040;8.850;2023-05-01T10:00:11;10.05;;;5.30;;
32333;SDS011;18810;53.040;8.850;2023-05-01T10:02:43;10.80;;;5.07;;
32333;SDS011;18810;53.040;8.850;2023-05-01T10:05:10;9.20;;;5.13;;
32333;SDS011;18810;53.040;8.850;2023-05-01T10:07:53;9.88;;;5.57;;
32333;SDS011;18810;53.040;8.850;2023-05-01T10:10:21;8.68;;;5.15;;
32333;SDS011;18810;53.040;8.850;2023-05-01T10:12:47;8.40;;;5.95;;
32333;SDS011;18810;53.040;8.850;2023-05-01T10:15:14;7.18;;;5.22;;
32333;SDS011;18810;53.040;8.850;2023-05-01T10:17:41;8.20;;;5.90;;
32333;SDS011;18810;53.040;8.850;2023-05-01T10:20:08;7.55;;;5.07;;
32333;SDS011;18810;53.040;8.850;2023-05-01T10:22:36;8.05;;;5.53;;
32333;SDS011;18810;53.040;8.850;2023-05-01T10:25:02;9.90;;;5.28;;
32333;SDS011;18810;53.040;8.850;2023-05-01T10:27:32;7.15;;;5.03;;
32333;SDS011;18810;53.040;8.850;2023-05-01T10:29:59;9.55;;;5.53;;
32333;SDS011;18810;53.040;8.850;2023-05-01T10:32:29;11.80;;;6.30;;
32333;SDS011;18810;53.040;8.850;2023-05-01T10:34:57;10.00;;;5.65;;
32333;SDS011;18810;53.040;8.850;2023-05-01T10:37:48;9.95;;;4.78;;
32333;SDS011;18810;53.040;8.850;2023-05-01T10:40:46;8.57;;;5.15;;
32333;SDS011;18810;53.040;8.850;2023-05-01T10:46:25;9.88;;;5.10;;
32333;SDS011;18810;53.040;8.850;2023-05-01T10:53:38;10.07;;;4.57;;
32333;SDS011;18810;53.040;8.850;2023-05-01T10:56:04;8.10;;;4.78;;
32333;SDS011;18810;53.040;8.850;2023-05-01T11:04:05;7.53;;;4.93;;
32333;SDS011;18810;53.040;8.850;2023-05-01T11:12:03;11.23;;;5.10;;
32333;SDS011;18810;53.040;8.850;2023-05-01T11:22:55;6.90;;;4.60;;
32333;SDS011;18810;53.040;8.850;2023-05-01T11:25:21;7.68;;;4.72;;
32333;SDS011;18810;53.040;8.850;2023-05-01T11:27:49;7.38;;;4.30;;
32333;SDS011;18810;53.040;8.850;2023-05-01T11:30:17;11.30;;;4.70;;
32333;SDS011;18810;53.040;8.850;2023-05-01T11:32:43;6.90;;;4.50;;
32333;SDS011;18810;53.040;8.850;2023-05-01T11:35:20;7.28;;;4.47;;
32333;SDS011;18810;53.040;8.850;2023-05-01T11:37:54;7.85;;;5.40;;
32333;SDS011;18810;53.040;8.850;2023-05-01T11:40:27;8.35;;;4.43;;
32333;SDS011;18810;53.040;8.850;2023-05-01T11:45:30;6.93;;;4.53;;
32333;SDS011;18810;53.040;8.850;2023-05-01T11:47:56;7.57;;;4.45;;
32333;SDS011;18810;53.040;8.850;2023-05-01T11:50:30;6.45;;;4.15;;
32333;SDS011;18810;53.040;8.850;2023-05-01T11:53:00;7.05;;;3.90;;
32333;SDS011;18810;53.040;8.850;2023-05-01T11:55:30;6.25;;;4.18;;
32333;SDS011;18810;53.040;8.850;2023-05-01T11:57:57;4.88;;;3.78;;
32333;SDS011;18810;53.040;8.850;2023-05-01T12:00:33;5.47;;;3.95;;
32333;SDS011;18810;53.040;8.850;2023-05-01T12:03:05;7.28;;;4.15;;
32333;SDS011;18810;53.040;8.850;2023-05-01T12:05:36;5.55;;;4.72;;
32333;SDS011;18810;53.040;8.850;2023-05-01T12:08:13;8.93;;;4.30;;
32333;SDS011;18810;53.040;8.850;2023-05-01T12:10:43;7.70;;;4.53;;
32333;SDS011;18810;53.040;8.850;2023-05-01T12:13:17;5.25;;;3.88;;
32333;SDS011;18810;53.040;8.850;2023-05-01T12:15:45;6.78;;;4.10;;
32333;SDS011;18810;53.040;8.850;2023-05-01T12:18:12;7.20;;;4.03;;
32333;SDS011;18810;53.040;8.850;2023-05-01T12:20:43;5.80;;;3.97;;
32333;SDS011;18810;53.040;8.850;2023-05-01T12:23:12;8.85;;;4.15;;
32333;SDS011;18810;53.040;8.850;2023-05-01T12:25:40;5.88;;;3.47;;
32333;SDS011;18810;53.040;8.850;2023-05-01T12:28:07;11.02;;;3.70;;
32333;SDS011;18810;53.040;8.850;2023-05-01T12:30:40;5.32;;;3.58;;
32333;SDS011;18810;53.040;8.850;2023-05-01T12:33:14;5.70;;;3.80;;
32333;SDS011;18810;53.040;8.850;2023-05-01T12:35:41;5.53;;;3.33;;
32333;SDS011;18810;53.040;8.850;2023-05-01T12:40:49;4.97;;;3.40;;
32333;SDS011;18810;53.040;8.850;2023-05-01T12:43:17;3.70;;;2.95;;
32333;SDS011;18810;53.040;8.850;2023-05-01T12:45:50;5.75;;;3.22;;
32333;SDS011;18810;53.040;8.850;2023-05-01T12:48:17;6.53;;;3.33;;
32333;SDS011;18810;53.040;8.850;2023-05-01T12:50:44;4.03;;;2.92;;
32333;SDS011;18810;53.040;8.850;2023-05-01T12:53:10;4.78;;;3.35;;
32333;SDS011;18810;53.040;8.850;2023-05-01T12:55:46;4.85;;;3.00;;
32333;SDS011;18810;53.040;8.850;2023-05-01T12:58:13;4.72;;;3.00;;
32333;SDS011;18810;53.040;8.850;2023-05-01T13:00:46;5.63;;;3.20;;
32333;SDS011;18810;53.040;8.850;2023-05-01T13:03:14;5.25;;;3.22;;
32333;SDS011;18810;53.040;8.850;2023-05-01T13:06:16;4.93;;;3.60;;
32333;SDS011;18810;53.040;8.850;2023-05-01T13:08:36;3.78;;;2.30;;
32333;SDS011;18810;53.040;8.850;2023-05-01T13:11:13;4.40;;;2.25;;
32333;SDS011;18810;53.040;8.850;2023-05-01T13:13:44;4.68;;;2.67;;
32333;SDS011;18810;53.040;8.850;2023-05-01T13:16:11;3.38;;;2.50;;
32333;SDS011;18810;53.040;8.850;2023-05-01T13:18:48;4.70;;;2.22;;
32333;SDS011;18810;53.040;8.850;2023-05-01T13:21:16;5.07;;;2.30;;
32333;SDS011;18810;53.040;8.850;2023-05-01T13:26:24;3.78;;;2.38;;
32333;SDS011;18810;53.040;8.850;2023-05-01T13:28:57;3.65;;;2.05;;
32333;SDS011;18810;53.040;8.850;2023-05-01T13:31:25;3.10;;;2.20;;
32333;SDS011;18810;53.040;8.850;2023-05-01T13:33:52;4.05;;;2.00;;
32333;SDS011;18810;53.040;8.850;2023-05-01T13:36:19;3.58;;;2.22;;
32333;SDS011;18810;53.040;8.850;2023-05-01T13:38:46;5.07;;;2.28;;
32333;SDS011;18810;53.040;8.850;2023-05-01T13:41:18;2.88;;;2.13;;
32333;SDS011;18810;53.040;8.850;2023-05-01T13:43:48;4.15;;;2.65;;
32333;SDS011;18810;53.040;8.850;2023-05-01T13:46:16;5.65;;;2.70;;
32333;SDS011;18810;53.040;8.850;2023-05-01T13:48:43;4.72;;;2.22;;
32333;SDS011;18810;53.040;8.850;2023-05-01T13:51:10;5.43;;;2.20;;
32333;SDS011;18810;53.040;8.850;2023-05-01T13:53:37;4.05;;;2.15;;
32333;SDS011;18810;53.040;8.850;2023-05-01T13:56:05;6.00;;;2.60;;
32333;SDS011;18810;53.040;8.850;2023-05-01T13:58:32;4.35;;;2.10;;
32333;SDS011;18810;53.040;8.850;2023-05-01T14:00:59;2.58;;;1.90;;
32333;SDS011;18810;53.040;8.850;2023-05-01T14:03:25;5.90;;;2.70;;
32333;SDS011;18810;53.040;8.850;2023-05-01T14:05:51;4.65;;;2.83;;
32333;SDS011;18810;53.040;8.850;2023-05-01T14:08:20;3.25;;;2.03;;
32333;SDS011;18810;53.040;8.850;2023-05-01T14:10:52;3.28;;;2.15;;
32333;SDS011;18810;53.040;8.850;2023-05-01T14:13:18;2.88;;;2.15;;
32333;SDS011;18810;53.040;8.850;2023-05-01T14:15:43;3.00;;;1.98;;
32333;SDS011;18810;53.040;8.850;2023-05-01T14:18:10;4.38;;;2.10;;
32333;SDS011;18810;53.040;8.850;2023-05-01T14:20:43;2.67;;;1.88;;
32333;SDS011;18810;53.040;8.850;2023-05-01T14:23:16;3.20;;;1.90;;
32333;SDS011;18810;53.040;8.850;2023-05-01T14:25:44;4.30;;;2.08;;
32333;SDS011;18810;53.040;8.850;2023-05-01T14:28:12;3.78;;;1.98;;
32333;SDS011;18810;53.040;8.850;2023-05-01T14:30:39;4.28;;;2.13;;
32333;SDS011;18810;53.040;8.850;2023-05-01T14:33:06;2.97;;;1.90;;
32333;SDS011;18810;53.040;8.850;2023-05-01T14:35:33;3.00;;;2.28;;
32333;SDS011;18810;53.040;8.850;2023-05-01T14:38:10;5.35;;;2.50;;
32333;SDS011;18810;53.040;8.850;2023-05-01T14:40:38;2.58;;;1.95;;
32333;SDS011;18810;53.040;8.850;2023-05-01T14:43:05;2.90;;;1.95;;
32333;SDS011;18810;53.040;8.850;2023-05-01T14:45:33;3.00;;;1.98;;
32333;SDS011;18810;53.040;8.850;2023-05-01T14:48:00;3.58;;;2.20;;
32333;SDS011;18810;53.040;8.850;2023-05-01T14:50:26;2.78;;;2.35;;
32333;SDS011;18810;53.040;8.850;2023-05-01T14:52:52;2.53;;;2.10;;
32333;SDS011;18810;53.040;8.850;2023-05-01T14:55:20;3.70;;;2.80;;
32333;SDS011;18810;53.040;8.850;2023-05-01T14:57:53;4.82;;;2.40;;
32333;SDS011;18810;53.040;8.850;2023-05-01T15:00:21;4.00;;;2.35;;
32333;SDS011;18810;53.040;8.850;2023-05-01T15:03:01;3.83;;;2.40;;
32333;SDS011;18810;53.040;8.850;2023-05-01T15:05:29;5.63;;;2.55;;
32333;SDS011;18810;53.040;8.850;2023-05-01T15:07:55;4.45;;;2.35;;
32333;SDS011;18810;53.040;8.850;2023-05-01T15:10:21;4.07;;;2.30;;
32333;SDS011;18810;53.040;8.850;2023-05-01T15:12:48;3.25;;;2.30;;
32333;SDS011;18810;53.040;8.850;2023-05-01T15:15:14;2.28;;;2.05;;
32333;SDS011;18810;53.040;8.850;2023-05-01T15:17:39;5.47;;;2.70;;
32333;SDS011;18810;53.040;8.850;2023-05-01T15:20:05;3.58;;;2.67;;
32333;SDS011;18810;53.040;8.850;2023-05-01T15:22:31;6.50;;;2.58;;
32333;SDS011;18810;53.040;8.850;2023-05-01T15:24:57;4.28;;;2.67;;
32333;SDS011;18810;53.040;8.850;2023-05-01T15:27:23;3.63;;;3.33;;
32333;SDS011;18810;53.040;8.850;2023-05-01T15:29:49;4.20;;;3.80;;
32333;SDS011;18810;53.040;8.850;2023-05-01T15:32:15;6.78;;;3.95;;
32333;SDS011;18810;53.040;8.850;2023-05-01T15:34:40;5.95;;;4.50;;
32333;SDS011;18810;53.040;8.850;2023-05-01T15:37:06;4.93;;;3.92;;
32333;SDS011;18810;53.040;8.850;2023-05-01T15:39:32;6.15;;;4.45;;
32333;SDS011;18810;53.040;8.850;2023-05-01T15:41:58;7.18;;;4.78;;
32333;SDS011;18810;53.040;8.850;2023-05-01T15:44:24;5.25;;;4.50;;
32333;SDS011;18810;53.040;8.850;2023-05-01T15:46:51;5.47;;;4.60;;
32333;SDS011;18810;53.040;8.850;2023-05-01T15:49:17;7.25;;;4.53;;
32333;SDS011;18810;53.040;8.850;2023-05-01T15:51:43;5.63;;;4.80;;
32333;SDS011;18810;53.040;8.850;2023-05-01T15:54:09;6.72;;;4.28;;
32333;SDS011;18810;53.040;8.850;2023-05-01T15:56:35;5.65;;;4.15;;
32333;SDS011;18810;53.040;8.850;2023-05-01T15:59:02;6.18;;;3.85;;